Port Hueneme CBC Base, California
Current Conditions -  °F | °C
As of 6:51 AM on Saturday 20 Dec 2014 (Local Time) from KOXR Reporting Station
Overcast Overcast  
Wind Chill: 52°   Ceiling: 1900
Heat Index: 52°   Visibility: 10mi
Dew Point: 45°   Wind: 9mph
Humidity: 77%   Direction: 40°NE
Pressure: 30.16"   Gusts: NA
Location:  34.15°N, 119.19°W
Report Text: KOXR 201451Z AUTO 04008KT 10SM OVC019 11/07 A3016 RMK AO2 SLP213 T01110072 53008
Loading
Personal Weather Stations






























Interactive Weather Map New forecast layout! Learn more

10-Day Weather Forecast

Advertisements
Track Severe Weather on mobile